x

North Hecate Strait (46183) Wave Buoy

11:00pm - Sat 23rd Jul 2016 All times are PDT. -7 hours from GMT.

  • Sig Wave height 3.9ft
  • Peak Period 6s
  • Wind
    9mph, 11mph gusts
  • Air Temp 57°f
  • Sea Pressure 1017.4mb
  • North Hecate Strait
  • North Hecate Strait

More Historic Weather Station data

Upgrade to MSW Pro to gain access to the past 30 days of data for over 8000 Wavebouys and Weather Stations around the globe.

Join Pro

Comparision Forecast

View Surf forecast
   
Sat 07/23 11:00pm 4ft 6s 9 11 mph 1017.4mb 57f
10:00pm 4.5ft 6s 9 11 mph 1017.2mb 57f
9:00pm 5ft 6s 13 18 mph 1016.8mb 57f
8:00pm 5ft 6s 16 18 mph 1016.4mb 58f
7:00pm 6ft 6s 22 27 mph 1016mb 58f
6:00pm 6ft 6s 25 29 mph 1015.5mb 58f
5:00pm 6ft 6s 27 31 mph 1015.6mb 58f
4:00pm 6ft 6s 27 31 mph 1016mb 58f
3:00pm 6ft 6s 29 36 mph 1016mb 58f
2:00pm 7ft 6s 27 31 mph 1016.5mb 58f
1:00pm 7ft 6s 29 36 mph 1016.2mb 58f
12:00pm 6.5ft 5s 29 36 mph 1016.5mb 58f
11:00am 7ft 6s 29 36 mph 1016.8mb 57f
10:00am 6ft 6s 29 34 mph 1016.7mb 57f
9:00am 5.5ft 6s 27 31 mph 1017mb 57f
8:00am 5ft 6s 25 31 mph 1016.9mb 57f
7:00am 5ft 5s 27 29 mph 1016.7mb 57f
6:00am 5ft 5s 25 29 mph 1016.6mb 57f
5:00am 4.5ft 5s 25 29 mph 1016.7mb 57f
3:00am 4.5ft 5s 22 27 mph 1017.9mb 57f
2:00am 4ft 5s 22 27 mph 1017.9mb 57f
1:00am 4ft 5s 20
mph
1018.3mb 57f
12:00am  -   -  20
mph
- 57f
Fri 07/22 11:00pm 4.5ft 5s 18 22 mph 1019.1mb 57f
10:00pm 4.5ft 5s 20 25 mph 1019mb 57f
9:00pm 4.5ft 5s 20 25 mph 1019.1mb 57f
8:00pm 4ft 5s 22 27 mph 1018.5mb 58f
7:00pm 4.5ft 5s 20 27 mph 1018.7mb 58f
6:00pm 3.5ft 5s 22 25 mph 1018.7mb 58f
5:00pm 3.5ft 5s 22 27 mph 1018.6mb 58f
4:00pm 3.5ft 4s 20 25 mph 1018.8mb 58f
3:00pm 3.5ft 4s 22 25 mph 1018.8mb 58f
2:00pm 3.5ft 4s 20 22 mph 1018.9mb 58f
1:00pm 2.5ft 4s 18 22 mph 1018.9mb 58f
12:00pm 2.5ft 4s 18 20 mph 1018.8mb 58f
11:00am 1.6ft 3s 16 18 mph 1019mb 58f
10:00am 1.3ft 3s 13 16 mph 1018.7mb 58f
9:00am 1.3ft 3s 11 13 mph 1018.7mb 58f
8:00am 1.3ft 16s 9 11 mph 1019.1mb 58f
7:00am 1.3ft 3s 11 13 mph 1018.4mb 58f
6:00am 1.3ft 16s 9
mph
1018.1mb 58f
5:00am 1.3ft 16s 9
mph
1017.7mb 58f
4:00am 1.3ft 3s 9
mph
1017.8mb 58f
3:00am 1.3ft 4s 9 11 mph 1017.7mb 58f
2:00am 1ft 15s 9
mph
1017.9mb 58f
1:00am 1.3ft 15s 7 9 mph 1018.3mb 58f
12:00am 1.3ft 16s 9
mph
1018.3mb 58f
Thu 07/21 11:00pm 1.3ft 16s 9 11 mph 1018.7mb 58f
10:00pm 1ft 15s 9 11 mph 1019.2mb 58f
9:00pm 1.3ft 7s 9 11 mph 1019.1mb 58f
8:00pm 1ft 15s 9 11 mph 1019.4mb 58f
7:00pm 1ft 16s 9 11 mph 1019.3mb 58f
6:00pm 1.3ft 16s 11 13 mph 1019.7mb 58f
5:00pm 1.3ft 16s 9 11 mph 1020.1mb 58f
4:00pm 1.3ft 16s 11 13 mph 1020mb 58f
3:00pm 1.3ft 15s 11 13 mph 1020.2mb 58f
2:00pm 1ft 16s 11
mph
1020.1mb 58f
1:00pm 1.3ft 10s 11
mph
1020.2mb 58f
12:00pm 1.3ft 15s 9 11 mph 1020.3mb 58f
11:00am 1.3ft 4s 9 11 mph 1020.3mb 58f
10:00am 1.3ft 16s 9 11 mph 1020.2mb 57f
9:00am 1.3ft 4s 9 11 mph 1020mb 58f
8:00am 1.3ft 4s 9 11 mph 1019.8mb 58f
7:00am 1.6ft 4s 7 9 mph 1019.8mb 57f
6:00am 1.6ft 5s 7 9 mph 1019.3mb 57f
5:00am 2ft 5s 11 13 mph 1019mb 57f
4:00am 2.5ft 4s 13
mph
1018.7mb 57f
3:00am 2.5ft 5s 13 16 mph 1018.7mb 58f
2:00am 2.5ft 5s 13 16 mph 1018.8mb 58f
1:00am 2.5ft 5s 13 16 mph 1018.6mb 58f
12:00am 3ft 4s 16 20 mph 1018.7mb 58f
Wed 07/20 11:00pm 3ft 5s 18 20 mph 1018.7mb 58f
10:00pm 3.5ft 4s 18 20 mph 1018.7mb 58f
9:00pm 3.5ft 4s 18 20 mph 1018.6mb 58f
8:00pm 3.5ft 5s 18 22 mph 1018.4mb 58f
7:00pm 3.5ft 5s 20 22 mph 1018.4mb 58f
6:00pm 3.5ft 5s 22 27 mph 1018mb 58f
5:00pm 3.5ft 4s 20 25 mph 1018mb 58f
4:00pm 3.5ft 5s 20 25 mph 1018mb 58f
3:00pm 3ft 4s 22 25 mph 1017.6mb 58f
2:00pm 3.5ft 4s 20 25 mph 1017.6mb 58f
1:00pm 3ft 4s 20 25 mph 1017.4mb 58f
12:00pm 3ft 4s 18 22 mph 1017.3mb 57f
11:00am 3ft 4s 16 20 mph 1017.3mb 58f
10:00am 3.5ft 4s 16 20 mph 1017.2mb 58f
8:00am 2.5ft 5s 18 20 mph 1017mb 57f